createdAt,value
2022-10-13T00:00:59.728Z,17.63
2022-10-13T00:04:02.491Z,15.57
2022-10-13T00:07:05.049Z,14.30
2022-10-13T00:10:10.188Z,17.20
2022-10-13T00:13:13.177Z,12.98
2022-10-13T00:16:18.418Z,14.07
2022-10-13T00:19:21.164Z,17.00
2022-10-13T00:22:24.117Z,14.15
2022-10-13T00:25:27.015Z,16.23
2022-10-13T00:28:30.021Z,18.10
2022-10-13T00:31:33.016Z,17.80
2022-10-13T00:34:37.704Z,17.10
2022-10-13T00:37:40.270Z,15.57
2022-10-13T00:40:50.137Z,15.35
2022-10-13T00:44:03.228Z,16.55
2022-10-13T00:47:06.143Z,19.57
2022-10-13T00:50:12.695Z,18.35
2022-10-13T00:53:17.034Z,20.62
2022-10-13T00:56:21.390Z,20.12
2022-10-13T00:59:29.082Z,18.00
2022-10-13T01:02:33.118Z,28.03
2022-10-13T01:05:39.461Z,24.37
2022-10-13T01:08:42.023Z,24.75
2022-10-13T01:11:51.371Z,23.85
2022-10-13T01:15:04.009Z,28.62
2022-10-13T01:18:25.714Z,29.17
2022-10-13T01:21:33.717Z,29.42
2022-10-13T01:24:51.795Z,21.42
2022-10-13T01:28:13.692Z,21.73
2022-10-13T01:31:24.504Z,24.33
2022-10-13T01:34:32.013Z,20.17
2022-10-13T01:37:50.537Z,18.27
2022-10-13T01:41:14.628Z,21.20
2022-10-13T01:44:22.653Z,22.15
2022-10-13T01:47:27.806Z,18.75
2022-10-13T01:50:32.857Z,19.60
2022-10-13T01:53:36.275Z,18.08
2022-10-13T01:56:39.167Z,17.00
2022-10-13T01:59:41.685Z,20.70
2022-10-13T02:03:06.611Z,19.65
2022-10-13T02:06:44.899Z,14.90
2022-10-13T02:09:50.456Z,12.75
2022-10-13T02:13:05.605Z,13.73
2022-10-13T02:16:08.231Z,15.13
2022-10-13T02:19:14.485Z,11.95
2022-10-13T02:22:19.807Z,10.47
2022-10-13T02:25:23.076Z,12.32
2022-10-13T02:28:28.112Z,10.90
2022-10-13T02:31:31.004Z,15.13
2022-10-13T02:34:33.629Z,11.45
2022-10-13T02:37:36.529Z,13.53
2022-10-13T02:40:39.110Z,13.52
2022-10-13T02:43:42.207Z,10.15
2022-10-13T02:46:44.774Z,13.02
2022-10-13T02:49:47.766Z,14.35
2022-10-13T02:52:50.370Z,14.40
2022-10-13T02:55:55.611Z,23.25
2022-10-13T02:59:01.089Z,21.60
2022-10-13T03:02:03.859Z,17.65
2022-10-13T03:05:07.643Z,18.55
2022-10-13T03:08:10.504Z,14.33
2022-10-13T03:11:13.135Z,15.93
2022-10-13T03:14:15.883Z,16.40
2022-10-13T03:17:18.526Z,13.95
2022-10-13T03:20:21.410Z,11.25
2022-10-13T03:23:24.021Z,15.43
2022-10-13T03:26:26.815Z,11.95
2022-10-13T03:29:29.544Z,14.32
2022-10-13T03:32:32.478Z,16.90
2022-10-13T03:35:35.040Z,13.73
2022-10-13T03:38:37.825Z,14.27
2022-10-13T03:41:40.373Z,15.85
2022-10-13T03:44:43.278Z,12.85
2022-10-13T03:47:45.819Z,13.30
2022-10-13T03:50:48.822Z,13.52
2022-10-13T03:53:52.580Z,15.47
2022-10-13T03:56:55.653Z,17.52
2022-10-13T03:59:58.365Z,12.82
2022-10-13T04:03:02.386Z,12.32
2022-10-13T04:06:06.293Z,18.42
2022-10-13T04:09:09.561Z,14.07
2022-10-13T04:12:13.609Z,13.13
2022-10-13T04:15:18.557Z,18.70
2022-10-13T04:18:21.491Z,13.85
2022-10-13T04:21:25.298Z,16.65
2022-10-13T04:24:28.580Z,15.47
2022-10-13T04:27:31.031Z,19.58
2022-10-13T04:30:35.038Z,13.20
2022-10-13T04:33:42.966Z,12.77
2022-10-13T04:36:45.767Z,13.05
2022-10-13T04:39:48.356Z,16.80
2022-10-13T04:42:51.775Z,18.23
2022-10-13T04:45:54.470Z,15.13
2022-10-13T04:48:57.726Z,14.02
2022-10-13T04:52:04.635Z,15.20
2022-10-13T04:55:08.995Z,13.47
2022-10-13T04:58:11.704Z,13.62
2022-10-13T05:01:21.523Z,13.70
2022-10-13T05:04:24.571Z,15.05
2022-10-13T05:07:27.462Z,16.27
2022-10-13T05:10:34.562Z,15.20
2022-10-13T05:13:37.921Z,16.80
2022-10-13T05:16:40.357Z,15.90
2022-10-13T05:19:43.183Z,15.95
2022-10-13T05:22:45.708Z,21.70
2022-10-13T05:25:48.568Z,16.47
2022-10-13T05:28:53.497Z,16.35
2022-10-13T05:31:56.455Z,16.40
2022-10-13T05:34:58.915Z,21.80
2022-10-13T05:38:01.830Z,17.42
2022-10-13T05:41:10.106Z,18.73
2022-10-13T05:44:13.067Z,17.00
2022-10-13T05:47:17.659Z,16.77
2022-10-13T05:50:20.757Z,16.20
2022-10-13T05:53:25.932Z,15.80
2022-10-13T05:56:32.789Z,15.63
2022-10-13T05:59:39.856Z,13.55
2022-10-13T06:02:49.234Z,13.77
2022-10-13T06:05:53.445Z,15.70
2022-10-13T06:08:56.192Z,16.25
2022-10-13T06:11:59.096Z,13.50
2022-10-13T06:15:01.590Z,14.18
2022-10-13T06:18:08.129Z,13.48
2022-10-13T06:21:10.680Z,14.10
2022-10-13T06:24:13.693Z,12.05
2022-10-13T06:27:16.257Z,14.93
2022-10-13T06:30:19.111Z,14.73
2022-10-13T06:33:22.196Z,17.95
2022-10-13T06:36:25.546Z,13.98
2022-10-13T06:39:28.078Z,13.30
2022-10-13T06:42:31.869Z,10.73
2022-10-13T06:45:42.754Z,10.02
2022-10-13T06:48:45.579Z,11.93
2022-10-13T06:51:48.068Z,11.80
2022-10-13T06:54:50.777Z,11.35
2022-10-13T06:57:53.288Z,14.17
2022-10-13T07:00:56.083Z,11.30
2022-10-13T07:03:58.951Z,13.10
2022-10-13T07:07:01.758Z,10.63
2022-10-13T07:10:04.554Z,11.15
2022-10-13T07:13:07.773Z,10.50
2022-10-13T07:16:11.269Z,10.32
2022-10-13T07:19:14.055Z,10.88
2022-10-13T07:22:17.150Z,11.40
2022-10-13T07:25:21.978Z,11.65
2022-10-13T07:28:25.538Z,10.90
2022-10-13T07:31:28.788Z,9.90
2022-10-13T07:34:31.351Z,10.40
2022-10-13T07:37:34.151Z,9.75
2022-10-13T07:40:38.294Z,11.12
2022-10-13T07:43:41.386Z,14.70
2022-10-13T07:46:43.850Z,9.77
2022-10-13T07:49:46.548Z,9.70
2022-10-13T07:52:49.108Z,10.57
2022-10-13T07:55:51.825Z,15.82
2022-10-13T07:58:54.397Z,10.73
2022-10-13T08:01:57.401Z,13.98
2022-10-13T08:05:00.236Z,14.85
2022-10-13T08:08:02.708Z,9.25
2022-10-13T08:11:07.416Z,16.27
2022-10-13T08:14:11.939Z,10.40
2022-10-13T08:17:14.775Z,10.73
2022-10-13T08:20:17.242Z,10.05
2022-10-13T08:23:20.028Z,10.93
2022-10-13T08:26:27.636Z,9.35
2022-10-13T08:29:30.621Z,10.73
2022-10-13T08:32:33.283Z,13.27
2022-10-13T08:35:36.179Z,10.25
2022-10-13T08:38:38.611Z,10.13
2022-10-13T08:41:46.495Z,9.55
2022-10-13T08:45:39.325Z,14.13
2022-10-13T08:48:32.767Z,10.63
2022-10-13T08:51:36.382Z,10.98
2022-10-13T08:54:39.280Z,11.63
2022-10-13T08:57:41.815Z,10.50
2022-10-13T09:00:47.345Z,13.57
2022-10-13T09:04:11.062Z,12.93
2022-10-13T09:07:23.483Z,8.52
2022-10-13T09:10:27.171Z,10.73
2022-10-13T09:13:29.990Z,10.98
2022-10-13T09:16:41.478Z,9.20
2022-10-13T09:19:58.295Z,14.07
2022-10-13T09:23:06.341Z,10.40
2022-10-13T09:26:14.158Z,12.23
2022-10-13T09:29:18.233Z,10.80
2022-10-13T09:32:23.878Z,11.60
2022-10-13T09:35:26.751Z,11.05
2022-10-13T09:38:30.126Z,12.85
2022-10-13T09:41:33.684Z,9.15
2022-10-13T09:44:36.523Z,12.18
2022-10-13T09:47:39.302Z,9.93
2022-10-13T09:50:51.848Z,10.13
2022-10-13T09:53:54.376Z,10.13
2022-10-13T09:57:04.590Z,11.68
2022-10-13T10:00:14.611Z,11.60
2022-10-13T10:03:33.801Z,9.40
2022-10-13T10:06:36.968Z,9.45
2022-10-13T10:09:42.367Z,10.98
2022-10-13T10:12:45.420Z,11.52
2022-10-13T10:16:08.156Z,10.50
2022-10-13T10:19:39.602Z,10.83
2022-10-13T10:22:48.330Z,11.35
2022-10-13T10:26:04.378Z,9.20
2022-10-13T10:29:16.281Z,12.05
2022-10-13T10:32:26.017Z,12.80
2022-10-13T10:35:58.971Z,13.97
2022-10-13T10:39:13.617Z,13.23
2022-10-13T10:42:39.309Z,11.95
2022-10-13T10:45:43.012Z,13.30
2022-10-13T10:48:47.694Z,10.90
2022-10-13T10:51:50.279Z,12.40
2022-10-13T10:54:53.011Z,11.38
2022-10-13T10:58:01.301Z,12.23
2022-10-13T11:01:19.398Z,13.68
2022-10-13T11:04:40.467Z,11.12
2022-10-13T11:07:43.151Z,8.93
2022-10-13T11:10:45.587Z,11.48
2022-10-13T11:13:56.273Z,15.75
2022-10-13T11:17:11.042Z,13.05
2022-10-13T11:20:22.723Z,12.23
2022-10-13T11:23:25.174Z,11.57
2022-10-13T11:26:28.999Z,11.48
2022-10-13T11:30:01.360Z,9.48
2022-10-13T11:33:33.464Z,11.82
2022-10-13T11:36:46.755Z,11.38
2022-10-13T11:40:04.700Z,15.70
2022-10-13T11:43:10.459Z,9.88
2022-10-13T11:47:18.256Z,11.95
2022-10-13T11:50:40.163Z,11.12
2022-10-13T11:54:04.650Z,14.00
2022-10-13T11:57:23.483Z,10.73
2022-10-13T12:00:26.472Z,11.80
2022-10-13T12:03:35.771Z,11.23
2022-10-13T12:06:40.426Z,10.82
2022-10-13T12:09:52.224Z,13.93
2022-10-13T12:12:55.748Z,14.37
2022-10-13T12:16:06.111Z,11.70
2022-10-13T12:19:24.099Z,13.13
2022-10-13T12:22:28.312Z,12.32
2022-10-13T12:25:31.254Z,15.77
2022-10-13T12:28:46.173Z,15.23
2022-10-13T12:31:50.250Z,12.52
2022-10-13T12:34:53.110Z,13.43
2022-10-13T12:37:57.624Z,13.82
2022-10-13T12:41:00.427Z,14.85
2022-10-13T12:44:06.704Z,11.17
2022-10-13T12:47:30.124Z,13.10
2022-10-13T12:50:37.090Z,13.00
2022-10-13T12:53:39.988Z,15.13
2022-10-13T12:56:42.918Z,16.12
2022-10-13T12:59:45.780Z,13.03
2022-10-13T13:02:53.524Z,14.10
2022-10-13T13:06:14.811Z,15.65
2022-10-13T13:09:23.826Z,13.40
2022-10-13T13:12:28.509Z,14.68
2022-10-13T13:15:35.103Z,11.87
2022-10-13T13:18:41.710Z,15.75
2022-10-13T13:21:44.242Z,14.68
2022-10-13T13:24:47.279Z,13.93
2022-10-13T13:27:50.476Z,12.18
2022-10-13T13:30:53.704Z,15.37
2022-10-13T13:33:56.599Z,16.15
2022-10-13T13:37:01.388Z,17.15
2022-10-13T13:40:05.136Z,14.45
2022-10-13T13:43:08.608Z,13.38
2022-10-13T13:46:22.722Z,14.60
2022-10-13T13:49:25.626Z,14.13
2022-10-13T13:52:28.163Z,13.55
2022-10-13T13:55:31.047Z,15.73
2022-10-13T13:58:33.520Z,13.35
2022-10-13T14:01:36.950Z,15.33
2022-10-13T14:04:39.773Z,13.73
2022-10-13T14:07:42.266Z,16.20
2022-10-13T14:10:45.069Z,16.58
2022-10-13T14:13:47.612Z,11.07
2022-10-13T14:16:51.750Z,14.67
2022-10-13T14:19:54.602Z,15.73
2022-10-13T14:22:57.380Z,16.58
2022-10-13T14:25:59.801Z,14.07
2022-10-13T14:29:04.631Z,13.57
2022-10-13T14:32:07.327Z,17.27
2022-10-13T14:35:10.504Z,14.85
2022-10-13T14:38:14.092Z,16.08
2022-10-13T14:41:17.562Z,15.05
2022-10-13T14:44:21.209Z,15.90
2022-10-13T14:47:24.157Z,16.77
2022-10-13T14:50:26.793Z,16.23
2022-10-13T14:53:36.024Z,17.62
2022-10-13T14:56:38.656Z,16.73
2022-10-13T14:59:42.997Z,16.70
2022-10-13T15:02:46.585Z,16.40
2022-10-13T15:05:49.842Z,15.77
2022-10-13T15:08:53.813Z,15.00
2022-10-13T15:11:58.792Z,16.12
2022-10-13T15:15:01.239Z,20.48
2022-10-13T15:18:04.155Z,16.00
2022-10-13T15:21:06.986Z,14.20
2022-10-13T15:24:11.842Z,15.00
2022-10-13T15:27:17.814Z,19.23
2022-10-13T15:30:20.696Z,18.30
2022-10-13T15:33:23.179Z,16.57
2022-10-13T15:36:26.346Z,17.95
2022-10-13T15:39:28.806Z,17.37
2022-10-13T15:42:31.640Z,15.68
2022-10-13T15:45:34.407Z,19.70
2022-10-13T15:48:37.327Z,20.23
2022-10-13T15:51:39.840Z,17.70
2022-10-13T15:54:42.653Z,20.62
2022-10-13T15:57:45.552Z,22.85
2022-10-13T16:00:49.459Z,21.58
2022-10-13T16:03:55.501Z,19.60
2022-10-13T16:06:57.984Z,20.10
2022-10-13T16:10:01.250Z,19.73
2022-10-13T16:13:03.778Z,20.70
2022-10-13T16:16:08.008Z,18.27
2022-10-13T16:19:10.592Z,15.43
2022-10-13T16:22:13.555Z,17.95
2022-10-13T16:25:16.236Z,16.65
2022-10-13T16:28:20.375Z,18.73
2022-10-13T16:31:22.918Z,19.37
2022-10-13T16:34:26.336Z,17.40
2022-10-13T16:37:28.901Z,18.10
2022-10-13T16:40:32.458Z,16.77
2022-10-13T16:43:35.207Z,18.62
2022-10-13T16:46:38.017Z,20.10
2022-10-13T16:49:40.580Z,18.50
2022-10-13T16:52:43.600Z,18.58
2022-10-13T16:55:46.217Z,18.65
2022-10-13T16:58:51.073Z,18.83
2022-10-13T17:01:53.808Z,18.80
2022-10-13T17:04:56.685Z,21.47
2022-10-13T17:07:59.353Z,18.40
2022-10-13T17:11:04.769Z,21.67
2022-10-13T17:14:07.342Z,30.37
2022-10-13T17:17:10.079Z,24.23
2022-10-13T17:20:13.278Z,24.10
2022-10-13T17:23:17.167Z,22.35
2022-10-13T17:26:21.073Z,19.65
2022-10-13T17:29:23.806Z,24.95
2022-10-13T17:32:29.042Z,24.25
2022-10-13T17:35:31.836Z,24.77
2022-10-13T17:38:34.977Z,20.48
2022-10-13T17:41:39.453Z,23.40
2022-10-13T17:44:43.150Z,24.35
2022-10-13T17:47:50.631Z,18.73
2022-10-13T17:50:53.171Z,19.40
2022-10-13T17:53:58.560Z,24.45
2022-10-13T17:57:01.383Z,21.62
2022-10-13T18:00:05.551Z,23.42
2022-10-13T18:03:14.712Z,19.48
2022-10-13T18:06:18.040Z,21.30
2022-10-13T18:09:24.180Z,27.58
2022-10-13T18:12:26.964Z,34.33
2022-10-13T18:15:29.450Z,18.33
2022-10-13T18:18:32.582Z,24.80
2022-10-13T18:21:35.198Z,21.50
2022-10-13T18:24:38.023Z,26.17
2022-10-13T18:27:40.505Z,23.77
2022-10-13T18:30:44.588Z,26.87
2022-10-13T18:33:47.686Z,23.33
2022-10-13T18:36:54.870Z,23.67
2022-10-13T18:39:57.437Z,27.08
2022-10-13T18:43:00.262Z,23.50
2022-10-13T18:46:05.692Z,27.98
2022-10-13T18:49:13.090Z,25.12
2022-10-13T18:52:18.298Z,23.60
2022-10-13T18:55:21.222Z,25.67
2022-10-13T18:58:25.902Z,24.48
2022-10-13T19:01:32.335Z,26.55
2022-10-13T19:04:35.831Z,20.37
2022-10-13T19:07:39.256Z,21.07
2022-10-13T19:10:42.394Z,23.08
2022-10-13T19:13:45.684Z,22.50
2022-10-13T19:16:48.366Z,31.58
2022-10-13T19:19:51.444Z,20.42
2022-10-13T19:22:54.108Z,22.77
2022-10-13T19:25:57.063Z,24.27
2022-10-13T19:29:09.222Z,25.50
2022-10-13T19:32:12.043Z,21.02
2022-10-13T19:35:14.720Z,24.20
2022-10-13T19:38:18.435Z,22.00
2022-10-13T19:41:21.143Z,24.15
2022-10-13T19:44:25.015Z,24.83
2022-10-13T19:47:28.222Z,30.12
2022-10-13T19:50:33.875Z,22.42
2022-10-13T19:53:37.251Z,26.73
2022-10-13T19:56:40.038Z,24.15
2022-10-13T19:59:47.554Z,26.48
2022-10-13T20:02:51.346Z,23.95
2022-10-13T20:05:54.246Z,24.15
2022-10-13T20:08:58.698Z,26.17
2022-10-13T20:12:03.471Z,25.50
2022-10-13T20:15:08.126Z,27.52
2022-10-13T20:18:13.148Z,25.75
2022-10-13T20:21:17.819Z,28.67
2022-10-13T20:24:23.033Z,27.70
2022-10-13T20:27:28.232Z,24.17
2022-10-13T20:30:31.083Z,21.05
2022-10-13T20:33:34.014Z,27.33
2022-10-13T20:36:39.045Z,22.42
2022-10-13T20:39:41.989Z,26.67
2022-10-13T20:42:49.917Z,23.55
2022-10-13T20:46:02.131Z,24.98
2022-10-13T20:49:11.096Z,34.65
2022-10-13T20:52:14.768Z,26.85
2022-10-13T20:55:17.944Z,22.80
2022-10-13T20:58:20.475Z,25.88
2022-10-13T21:01:23.721Z,34.03
2022-10-13T21:04:26.488Z,28.05
2022-10-13T21:07:29.699Z,27.27
2022-10-13T21:10:36.580Z,25.83
2022-10-13T21:13:41.016Z,25.70
2022-10-13T21:16:43.491Z,29.80
2022-10-13T21:19:46.872Z,28.02
2022-10-13T21:22:50.027Z,35.20
2022-10-13T21:25:52.820Z,26.23
2022-10-13T21:28:56.153Z,28.62
2022-10-13T21:31:59.071Z,24.73
2022-10-13T21:35:01.729Z,27.95
2022-10-13T21:38:04.781Z,27.52
2022-10-13T21:41:09.578Z,33.17
2022-10-13T21:44:14.184Z,28.83
2022-10-13T21:47:17.097Z,32.17
2022-10-13T21:50:20.050Z,31.33
2022-10-13T21:53:23.190Z,33.53
2022-10-13T21:56:27.391Z,30.33
2022-10-13T21:59:29.860Z,30.15
2022-10-13T22:02:32.718Z,32.08
2022-10-13T22:05:35.891Z,32.10
2022-10-13T22:08:40.515Z,32.50
2022-10-13T22:11:44.967Z,32.30
2022-10-13T22:14:47.477Z,30.62
2022-10-13T22:17:53.907Z,31.62
2022-10-13T22:21:06.018Z,33.10
2022-10-13T22:24:12.504Z,31.58
2022-10-13T22:27:15.246Z,30.83
2022-10-13T22:30:18.437Z,31.95
2022-10-13T22:33:21.346Z,33.97
2022-10-13T22:36:30.918Z,32.38
2022-10-13T22:39:33.642Z,36.80
2022-10-13T22:42:43.604Z,31.30
2022-10-13T22:45:52.612Z,38.80
2022-10-13T22:48:56.396Z,35.67
2022-10-13T22:51:59.206Z,33.30
2022-10-13T22:55:02.106Z,32.88
2022-10-13T22:58:05.889Z,33.07
2022-10-13T23:01:11.935Z,34.60
2022-10-13T23:04:14.483Z,35.05
2022-10-13T23:07:17.381Z,33.17
2022-10-13T23:10:21.265Z,32.65
2022-10-13T23:13:24.656Z,32.47
2022-10-13T23:16:30.058Z,32.53
2022-10-13T23:19:32.829Z,36.38
2022-10-13T23:22:35.307Z,31.15
2022-10-13T23:25:38.160Z,38.17
2022-10-13T23:28:41.318Z,36.00
2022-10-13T23:31:44.108Z,39.70
2022-10-13T23:34:46.626Z,36.38
2022-10-13T23:37:52.714Z,38.42
2022-10-13T23:40:55.580Z,37.30
2022-10-13T23:43:58.840Z,36.40
2022-10-13T23:47:01.445Z,38.38
2022-10-13T23:50:04.844Z,41.78
2022-10-13T23:53:07.959Z,38.00
2022-10-13T23:56:11.902Z,35.78
2022-10-13T23:59:14.511Z,42.23
